Time;durP1;ratioP1;P1;durP2;ratioP2;P2;SDS_P1;SDS_P2;PMS_P1;PMS_P2;Temp;Humidity;BMP_temperature;BMP_pressure;BME280_temperature;BME280_humidity;BME280_pressure;Samples;Min_cycle;Max_cycle;Signal;HPM_P1;HPM_P2
2023/03/18 00:01:29;;;;;;;22.63;15.05;;;10.10;99.90;;;;;;5051439;28;20368;-76
2023/03/18 00:03:54;;;;;;;20.17;14.23;;;10.10;99.90;;;;;;5068468;28;20048;-77
2023/03/18 00:06:21;;;;;;;21.70;14.03;;;10.00;99.90;;;;;;5039366;28;20120;-78
2023/03/18 00:08:48;;;;;;;19.60;14.13;;;10.00;99.90;;;;;;5046535;28;20044;-76
2023/03/18 00:11:17;;;;;;;22.80;14.82;;;10.10;99.90;;;;;;5068650;28;20534;-76
2023/03/18 00:13:43;;;;;;;17.50;13.90;;;10.10;99.90;;;;;;5037224;28;20049;-77
2023/03/18 00:16:10;;;;;;;19.20;13.75;;;10.10;99.90;;;;;;5038397;28;20095;-76
2023/03/18 00:18:37;;;;;;;19.57;13.73;;;10.20;99.90;;;;;;5043940;28;20101;-76
2023/03/18 00:21:03;;;;;;;21.52;14.25;;;10.10;99.90;;;;;;5068850;28;20044;-77
2023/03/18 00:23:30;;;;;;;19.40;13.53;;;10.20;99.90;;;;;;5067666;28;20052;-76
2023/03/18 00:25:59;;;;;;;25.27;16.33;;;10.10;99.90;;;;;;5068007;28;20076;-76
2023/03/18 00:28:25;;;;;;;19.70;13.93;;;10.10;99.90;;;;;;5026462;28;20049;-76
2023/03/18 00:30:52;;;;;;;22.10;14.47;;;10.00;99.90;;;;;;5049469;28;20114;-76
2023/03/18 00:33:18;;;;;;;20.30;14.73;;;10.00;99.90;;;;;;5078033;28;20070;-76
2023/03/18 00:35:45;;;;;;;19.70;14.33;;;10.10;99.90;;;;;;5068299;28;20048;-77
2023/03/18 00:38:19;;;;;;;24.07;15.60;;;10.00;99.90;;;;;;5053329;28;20046;-76
2023/03/18 00:40:52;;;;;;;18.93;13.83;;;10.00;99.90;;;;;;5039629;28;20041;-76
2023/03/18 00:43:28;;;;;;;23.47;13.23;;;10.00;99.90;;;;;;5056546;28;20082;-76
2023/03/18 00:45:55;;;;;;;22.13;14.03;;;10.00;99.90;;;;;;5041597;28;20044;-77
2023/03/18 00:48:22;;;;;;;20.40;13.50;;;10.10;99.90;;;;;;5051836;28;20041;-76
2023/03/18 00:50:48;;;;;;;20.27;13.37;;;10.10;99.90;;;;;;5064887;28;20072;-77
2023/03/18 00:53:15;;;;;;;18.93;12.97;;;10.20;99.90;;;;;;5060783;28;20048;-77
2023/03/18 00:55:41;;;;;;;19.85;13.63;;;10.10;99.90;;;;;;5061248;28;20136;-76
2023/03/18 00:58:08;;;;;;;19.87;13.63;;;10.10;99.90;;;;;;5034092;28;20049;-76
2023/03/18 01:00:36;;;;;;;21.80;13.63;;;10.10;99.90;;;;;;5049154;28;20056;-76
2023/03/18 01:03:03;;;;;;;22.23;14.13;;;10.20;99.90;;;;;;5067823;28;20071;-76
2023/03/18 01:05:30;;;;;;;21.17;14.13;;;10.20;99.90;;;;;;5068646;28;20558;-76
2023/03/18 01:07:56;;;;;;;19.67;14.10;;;10.20;99.90;;;;;;5051279;28;20633;-77
2023/03/18 01:10:23;;;;;;;21.60;14.47;;;10.20;99.90;;;;;;5061761;28;20057;-77
2023/03/18 01:12:49;;;;;;;23.27;15.07;;;10.20;99.90;;;;;;5065966;28;20071;-77
2023/03/18 01:15:17;;;;;;;23.00;14.67;;;10.30;99.90;;;;;;5050265;28;20040;-76
2023/03/18 01:17:44;;;;;;;25.57;14.17;;;10.20;99.90;;;;;;5051900;28;20050;-76
2023/03/18 01:20:12;;;;;;;22.50;15.17;;;10.30;99.90;;;;;;5050534;28;20556;-76
2023/03/18 01:22:40;;;;;;;25.37;16.40;;;10.30;99.90;;;;;;5028681;28;20119;-77
2023/03/18 01:25:08;;;;;;;23.33;16.50;;;10.30;99.90;;;;;;5054254;28;20048;-76
2023/03/18 01:27:34;;;;;;;28.50;17.20;;;10.30;99.90;;;;;;5050296;28;20106;-76
2023/03/18 01:30:01;;;;;;;25.70;17.67;;;10.30;99.90;;;;;;5050433;28;20071;-77
2023/03/18 01:32:27;;;;;;;27.53;18.53;;;10.30;99.90;;;;;;5065840;28;20101;-75
2023/03/18 01:34:53;;;;;;;27.97;18.03;;;10.30;99.90;;;;;;5068475;28;20370;-76
2023/03/18 01:37:20;;;;;;;26.13;18.77;;;10.20;99.90;;;;;;5035033;28;20171;-76
2023/03/18 01:39:46;;;;;;;31.27;20.10;;;10.20;99.90;;;;;;5068158;28;20048;-76
2023/03/18 01:42:13;;;;;;;26.07;19.30;;;10.10;99.90;;;;;;5049912;28;20084;-76
2023/03/18 01:44:39;;;;;;;29.53;20.97;;;10.20;99.90;;;;;;5058200;28;20074;-76
2023/03/18 01:47:06;;;;;;;29.73;20.47;;;10.00;99.90;;;;;;5055627;28;20360;-76
2023/03/18 01:49:41;;;;;;;33.13;22.53;;;9.90;99.90;;;;;;5032777;28;20048;-76
2023/03/18 01:52:15;;;;;;;30.70;21.43;;;9.90;99.90;;;;;;5052475;28;20503;-76
2023/03/18 01:54:51;;;;;;;31.47;22.67;;;9.90;99.90;;;;;;5049812;28;20068;-76
2023/03/18 01:57:18;;;;;;;32.60;23.77;;;9.90;99.90;;;;;;5052435;28;20087;-76
2023/03/18 01:59:45;;;;;;;31.27;22.27;;;9.90;99.90;;;;;;5067221;28;20080;-76
2023/03/18 02:02:14;;;;;;;32.67;23.23;;;9.80;99.90;;;;;;5067712;28;20040;-76
2023/03/18 02:04:49;;;;;;;35.60;24.73;;;9.70;99.90;;;;;;5050652;28;20052;-76
2023/03/18 02:07:17;;;;;;;36.10;26.13;;;9.80;99.90;;;;;;5034240;28;20075;-77
2023/03/18 02:09:45;;;;;;;39.20;27.87;;;9.70;99.90;;;;;;5067516;28;20349;-76
2023/03/18 02:12:14;;;;;;;35.27;26.87;;;9.60;99.90;;;;;;5052491;28;20858;-77
2023/03/18 02:14:39;;;;;;;38.67;28.50;;;9.60;99.90;;;;;;5071431;28;20402;-76
2023/03/18 02:17:10;;;;;;;38.10;27.17;;;9.60;99.90;;;;;;5055343;28;20047;-77
2023/03/18 02:20:10;;;;;;;35.70;27.50;;;9.50;99.90;;;;;;5053891;28;20559;-76
2023/03/18 02:22:40;;;;;;;42.20;29.20;;;9.40;99.90;;;;;;5066597;28;20314;-76
2023/03/18 02:25:10;;;;;;;39.23;28.63;;;9.50;99.90;;;;;;5071593;28;20052;-76
2023/03/18 02:27:44;;;;;;;39.43;29.10;;;9.40;99.90;;;;;;5055484;28;20499;-76
2023/03/18 02:30:15;;;;;;;39.73;29.57;;;9.40;99.90;;;;;;5036276;28;20734;-76
2023/03/18 02:32:42;;;;;;;42.38;28.70;;;9.20;99.90;;;;;;5060884;28;20056;-76
2023/03/18 02:35:10;;;;;;;44.30;31.50;;;9.20;99.90;;;;;;5071554;28;20110;-76
2023/03/18 02:37:36;;;;;;;42.60;31.90;;;9.20;99.90;;;;;;5055657;28;20088;-76
2023/03/18 02:40:23;;;;;;;41.43;31.40;;;9.20;99.90;;;;;;5071661;28;20043;-76
2023/03/18 02:42:49;;;;;;;43.70;31.47;;;9.10;99.90;;;;;;5052147;28;20044;-75
2023/03/18 02:45:37;;;;;;;43.37;31.63;;;9.10;99.90;;;;;;5082602;28;20084;-76
2023/03/18 02:48:05;;;;;;;42.53;31.27;;;9.00;99.90;;;;;;5051703;28;20055;-76
2023/03/18 02:50:31;;;;;;;46.40;31.47;;;9.00;99.90;;;;;;5051638;28;20047;-75
2023/03/18 02:52:59;;;;;;;41.43;30.87;;;9.00;99.90;;;;;;5051208;28;20044;-76
2023/03/18 02:55:26;;;;;;;46.37;32.60;;;8.90;99.90;;;;;;5051415;28;20474;-76
2023/03/18 02:57:51;;;;;;;41.57;31.90;;;8.80;99.90;;;;;;5054770;28;20560;-75
2023/03/18 03:00:17;;;;;;;46.00;30.13;;;8.70;99.90;;;;;;5071055;28;20048;-76
2023/03/18 03:02:44;;;;;;;45.50;31.70;;;8.70;99.90;;;;;;5069665;28;20052;-77
2023/03/18 03:05:09;;;;;;;57.57;38.17;;;8.60;99.90;;;;;;5069995;28;20094;-76
2023/03/18 03:07:35;;;;;;;44.77;33.37;;;8.50;99.90;;;;;;5036386;28;20449;-76
2023/03/18 03:10:03;;;;;;;47.50;34.17;;;8.50;99.90;;;;;;5052891;28;20094;-77
2023/03/18 03:12:29;;;;;;;46.67;34.80;;;8.40;99.90;;;;;;5052352;28;20056;-76
2023/03/18 03:14:55;;;;;;;49.20;33.27;;;8.30;99.90;;;;;;5069795;28;20048;-76
2023/03/18 03:17:21;;;;;;;49.00;34.50;;;8.20;99.90;;;;;;5054117;28;20040;-76
2023/03/18 03:19:47;;;;;;;47.60;34.40;;;8.10;99.90;;;;;;5069524;28;20450;-78
2023/03/18 03:22:13;;;;;;;51.03;34.00;;;8.10;99.90;;;;;;5068411;28;20459;-76
2023/03/18 03:24:38;;;;;;;48.77;35.97;;;8.00;99.90;;;;;;5070273;28;20055;-76
2023/03/18 03:27:04;;;;;;;50.10;36.30;;;8.00;99.90;;;;;;5036695;28;20059;-76
2023/03/18 03:29:30;;;;;;;52.97;38.23;;;8.00;99.90;;;;;;5070008;28;20067;-75
2023/03/18 03:31:56;;;;;;;55.20;39.77;;;8.00;99.90;;;;;;5077950;28;20343;-76
2023/03/18 03:34:22;;;;;;;55.87;39.53;;;8.00;99.90;;;;;;5056806;28;20131;-76
2023/03/18 03:36:47;;;;;;;60.60;40.47;;;8.00;99.90;;;;;;5054528;28;20056;-76
2023/03/18 03:39:13;;;;;;;62.77;42.07;;;8.00;99.90;;;;;;5051780;28;20052;-75
2023/03/18 03:41:39;;;;;;;60.97;43.67;;;8.10;99.90;;;;;;5070009;28;20461;-76
2023/03/18 03:44:05;;;;;;;63.23;42.93;;;8.00;99.90;;;;;;5053934;28;20043;-76
2023/03/18 03:46:31;;;;;;;63.90;43.00;;;8.00;99.90;;;;;;5040327;28;20762;-76
2023/03/18 03:48:57;;;;;;;64.47;43.20;;;8.10;99.90;;;;;;5049067;28;20041;-76
2023/03/18 03:51:22;;;;;;;63.23;42.60;;;8.00;99.90;;;;;;5061505;28;20136;-76
2023/03/18 03:53:49;;;;;;;64.13;41.50;;;8.00;99.90;;;;;;5051181;28;20040;-76
2023/03/18 03:56:15;;;;;;;68.53;45.03;;;8.00;99.90;;;;;;5040592;28;20044;-78
2023/03/18 03:58:40;;;;;;;64.43;46.53;;;8.00;99.90;;;;;;5064338;28;20400;-76
2023/03/18 04:01:07;;;;;;;66.67;45.27;;;8.00;99.90;;;;;;5070091;28;20113;-76
2023/03/18 04:03:33;;;;;;;65.47;45.80;;;8.00;99.90;;;;;;5068870;28;20059;-76
2023/03/18 04:05:59;;;;;;;68.00;46.30;;;8.10;99.90;;;;;;5069482;28;20079;-76
2023/03/18 04:08:25;;;;;;;72.90;48.23;;;8.00;99.90;;;;;;5034968;28;20045;-76
2023/03/18 04:10:52;;;;;;;72.13;46.77;;;8.00;99.90;;;;;;5049942;28;20052;-76
2023/03/18 04:13:17;;;;;;;72.17;48.30;;;8.10;99.90;;;;;;5068939;28;20056;-76
2023/03/18 04:15:43;;;;;;;71.10;46.03;;;8.00;99.90;;;;;;5069216;28;20372;-77
2023/03/18 04:18:09;;;;;;;72.53;48.43;;;8.00;99.90;;;;;;5034734;28;20101;-76
2023/03/18 04:20:36;;;;;;;72.33;47.50;;;8.00;99.90;;;;;;5069438;28;20045;-76
2023/03/18 04:23:02;;;;;;;75.07;49.23;;;8.00;99.90;;;;;;5068174;28;20044;-77
2023/03/18 04:25:28;;;;;;;74.30;48.83;;;8.00;99.90;;;;;;5068888;28;20044;-76
2023/03/18 04:27:55;;;;;;;71.60;48.83;;;7.90;99.90;;;;;;5052810;28;20108;-76
2023/03/18 04:30:22;;;;;;;71.07;48.87;;;8.00;99.90;;;;;;5068874;28;20048;-76
2023/03/18 04:32:49;;;;;;;69.17;48.47;;;8.00;99.90;;;;;;5068476;28;20052;-77
2023/03/18 04:35:16;;;;;;;69.53;47.20;;;8.00;99.90;;;;;;5067481;28;20044;-76
2023/03/18 04:37:43;;;;;;;73.43;46.03;;;7.90;99.90;;;;;;5035738;28;20048;-76
2023/03/18 04:40:10;;;;;;;64.50;44.30;;;8.00;99.90;;;;;;5068794;28;20493;-76
2023/03/18 04:42:37;;;;;;;68.57;46.20;;;8.00;99.90;;;;;;5067919;28;20157;-76
2023/03/18 04:45:04;;;;;;;70.80;47.47;;;8.10;99.90;;;;;;5079861;28;20048;-76
2023/03/18 04:47:31;;;;;;;70.03;45.30;;;8.00;99.90;;;;;;5051620;28;20449;-76
2023/03/18 04:49:57;;;;;;;62.93;45.20;;;8.10;99.90;;;;;;5068278;28;20040;-76
2023/03/18 04:52:23;;;;;;;72.00;45.57;;;8.10;99.90;;;;;;5054272;28;20556;-76
2023/03/18 04:54:49;;;;;;;63.30;42.07;;;8.10;99.90;;;;;;5069380;28;20056;-76
2023/03/18 04:57:15;;;;;;;63.53;43.47;;;8.10;99.90;;;;;;5034742;28;20048;-76
2023/03/18 04:59:42;;;;;;;66.50;43.03;;;8.10;99.90;;;;;;5068801;28;20044;-76
2023/03/18 05:02:08;;;;;;;63.43;41.53;;;8.10;99.90;;;;;;5050044;28;20083;-76
2023/03/18 05:04:34;;;;;;;61.97;42.53;;;8.10;99.90;;;;;;5069042;28;20393;-76
2023/03/18 05:07:00;;;;;;;69.57;45.53;;;8.10;99.90;;;;;;5053704;28;20045;-75
2023/03/18 05:09:26;;;;;;;66.73;45.33;;;8.10;99.90;;;;;;5067844;28;20106;-75
2023/03/18 05:11:52;;;;;;;65.07;43.40;;;8.20;99.90;;;;;;5068092;28;20056;-76
2023/03/18 05:14:18;;;;;;;63.10;42.83;;;8.10;99.90;;;;;;5048540;28;20131;-76
2023/03/18 05:16:44;;;;;;;64.87;41.70;;;8.10;99.90;;;;;;5053485;28;20482;-76
2023/03/18 05:19:10;;;;;;;66.90;43.70;;;8.10;99.90;;;;;;5067430;28;20045;-75
2023/03/18 05:21:36;;;;;;;66.10;43.23;;;8.10;99.90;;;;;;5068281;28;20082;-76
2023/03/18 05:24:02;;;;;;;65.37;42.90;;;8.10;99.90;;;;;;5067737;28;20052;-77
2023/03/18 05:26:28;;;;;;;67.90;43.37;;;8.10;99.90;;;;;;5033316;28;20136;-76
2023/03/18 05:28:53;;;;;;;68.03;42.13;;;8.20;99.90;;;;;;5060541;28;20579;-76
2023/03/18 05:31:19;;;;;;;70.83;43.47;;;8.20;99.90;;;;;;5068519;28;20044;-76
2023/03/18 05:33:45;;;;;;;69.97;43.37;;;8.20;99.90;;;;;;5065722;28;20052;-75
2023/03/18 05:36:11;;;;;;;67.83;42.87;;;8.20;99.90;;;;;;5040119;28;20398;-78
2023/03/18 05:38:36;;;;;;;67.67;41.63;;;8.20;99.90;;;;;;5061193;28;20083;-76
2023/03/18 05:41:03;;;;;;;68.43;42.60;;;8.20;99.90;;;;;;5067594;28;20161;-76
2023/03/18 05:43:29;;;;;;;69.80;43.20;;;8.30;99.90;;;;;;5067185;28;20048;-76
2023/03/18 05:45:54;;;;;;;90.20;47.93;;;8.30;99.90;;;;;;5034873;28;20054;-76
2023/03/18 05:48:21;;;;;;;95.07;45.93;;;8.30;99.90;;;;;;5037868;28;20056;-76
2023/03/18 05:50:46;;;;;;;103.87;50.03;;;8.30;99.90;;;;;;5033857;28;20037;-75
2023/03/18 05:53:15;;;;;;;112.37;50.13;;;8.30;99.90;;;;;;5055299;28;20056;-76
2023/03/18 05:55:41;;;;;;;106.87;47.97;;;8.40;99.90;;;;;;5031256;28;20099;-76
2023/03/18 05:58:07;;;;;;;124.67;51.00;;;8.40;99.90;;;;;;5042283;28;20041;-76
2023/03/18 06:00:33;;;;;;;118.53;49.67;;;8.40;99.90;;;;;;5054068;28;20051;-76
2023/03/18 06:03:00;;;;;;;109.33;49.57;;;8.40;99.90;;;;;;5071003;28;20429;-76
2023/03/18 06:05:27;;;;;;;103.17;47.37;;;8.40;99.90;;;;;;5071219;28;20048;-76
2023/03/18 06:07:53;;;;;;;111.30;49.23;;;8.50;99.90;;;;;;5037621;28;20047;-76
2023/03/18 06:10:21;;;;;;;107.60;49.63;;;8.50;99.90;;;;;;5071687;28;20044;-77
2023/03/18 06:12:48;;;;;;;111.17;49.03;;;8.50;99.90;;;;;;5052676;28;20039;-76
2023/03/18 06:15:14;;;;;;;122.07;50.07;;;8.60;99.90;;;;;;5070230;28;20581;-77
2023/03/18 06:17:40;;;;;;;115.23;48.53;;;8.60;99.90;;;;;;5034265;28;20454;-75
2023/03/18 06:20:08;;;;;;;113.13;49.43;;;8.60;99.90;;;;;;5070247;28;20044;-76
2023/03/18 06:22:34;;;;;;;126.67;50.83;;;8.60;99.90;;;;;;5069499;28;20097;-76
2023/03/18 06:25:01;;;;;;;129.27;52.13;;;8.60;99.90;;;;;;5071513;28;20398;-76
2023/03/18 06:27:27;;;;;;;133.93;51.70;;;8.70;99.90;;;;;;5037065;28;20087;-76
2023/03/18 06:29:53;;;;;;;124.63;50.40;;;8.70;99.90;;;;;;5071683;28;20119;-77
2023/03/18 06:32:18;;;;;;;130.83;50.90;;;8.70;99.90;;;;;;5081475;28;20048;-77
2023/03/18 06:34:44;;;;;;;134.83;51.53;;;8.60;99.90;;;;;;5052090;28;20411;-75
2023/03/18 06:37:11;;;;;;;125.10;50.60;;;8.80;99.90;;;;;;5056479;28;20460;-76
2023/03/18 06:39:37;;;;;;;123.93;51.03;;;8.70;99.90;;;;;;5070781;28;20041;-75
2023/03/18 06:42:02;;;;;;;133.80;51.63;;;8.70;99.90;;;;;;5052784;28;20486;-73
2023/03/18 06:44:28;;;;;;;122.70;49.50;;;8.70;99.90;;;;;;5072742;28;20044;-75
2023/03/18 06:46:55;;;;;;;121.97;48.67;;;8.70;99.90;;;;;;5055119;28;20052;-75
2023/03/18 06:49:20;;;;;;;118.03;48.70;;;8.70;99.90;;;;;;5049066;28;20517;-76
2023/03/18 06:51:47;;;;;;;119.30;49.33;;;8.70;99.90;;;;;;5048569;28;20072;-76
2023/03/18 06:54:13;;;;;;;107.93;48.50;;;8.70;99.90;;;;;;5067594;28;20075;-76
2023/03/18 06:56:40;;;;;;;112.93;48.97;;;8.60;99.90;;;;;;5053751;28;20448;-77
2023/03/18 06:59:07;;;;;;;119.23;49.90;;;8.70;99.90;;;;;;5030958;28;20053;-77
2023/03/18 07:01:33;;;;;;;102.70;47.27;;;8.70;99.90;;;;;;5057333;28;20052;-76
2023/03/18 07:03:59;;;;;;;103.40;48.30;;;8.70;99.90;;;;;;5052645;28;20475;-76
2023/03/18 07:06:29;;;;;;;102.93;48.07;;;8.70;99.90;;;;;;5029814;28;20853;-76
2023/03/18 07:08:56;;;;;;;107.20;47.73;;;8.80;99.90;;;;;;5039037;28;20052;-76
2023/03/18 07:11:22;;;;;;;104.40;49.20;;;8.90;99.90;;;;;;5066947;28;20131;-76
2023/03/18 07:13:48;;;;;;;91.40;46.83;;;9.00;99.90;;;;;;5069205;28;20136;-76
2023/03/18 07:16:14;;;;;;;95.27;49.10;;;9.10;99.90;;;;;;5057667;28;20104;-78
2023/03/18 07:18:41;;;;;;;91.37;47.17;;;9.30;99.90;;;;;;5026946;28;20055;-76
2023/03/18 07:21:08;;;;;;;88.03;43.73;;;9.20;99.90;;;;;;5067273;28;20577;-76
2023/03/18 07:23:34;;;;;;;82.27;45.23;;;9.20;99.90;;;;;;5065452;28;20052;-76
2023/03/18 07:26:03;;;;;;;77.27;44.33;;;9.10;99.90;;;;;;5051533;28;20098;-76
2023/03/18 07:28:29;;;;;;;73.27;44.37;;;9.20;99.90;;;;;;5053578;28;20056;-76
2023/03/18 07:30:55;;;;;;;82.53;45.80;;;9.20;99.90;;;;;;5070129;28;20082;-76
2023/03/18 07:33:21;;;;;;;83.13;46.73;;;9.20;99.90;;;;;;5068042;28;20048;-76
2023/03/18 07:35:47;;;;;;;76.40;45.30;;;9.30;99.90;;;;;;5069335;28;20058;-76
2023/03/18 07:38:12;;;;;;;71.77;43.30;;;9.40;99.90;;;;;;5054545;28;20086;-76
2023/03/18 07:40:38;;;;;;;83.47;47.47;;;9.40;99.90;;;;;;5070520;28;20498;-76
2023/03/18 07:43:05;;;;;;;76.23;46.30;;;9.50;99.90;;;;;;5069327;28;20122;-76
2023/03/18 07:45:30;;;;;;;73.23;45.47;;;9.50;99.90;;;;;;5078171;28;20671;-76
2023/03/18 07:47:56;;;;;;;74.93;46.27;;;9.50;99.90;;;;;;5034283;28;20052;-76
2023/03/18 07:50:22;;;;;;;69.27;43.10;;;9.60;99.90;;;;;;5069674;28;20052;-76
2023/03/18 07:52:48;;;;;;;68.83;44.23;;;9.60;99.90;;;;;;5051040;28;20056;-76
2023/03/18 07:55:14;;;;;;;69.47;44.37;;;9.70;99.90;;;;;;5070256;28;20055;-76
2023/03/18 07:57:40;;;;;;;69.70;44.47;;;9.80;99.90;;;;;;5035467;28;21404;-76
2023/03/18 08:00:09;;;;;;;61.70;42.33;;;9.90;99.90;;;;;;5051619;28;20082;-77
2023/03/18 08:02:35;;;;;;;66.40;43.97;;;9.90;99.90;;;;;;5031635;28;20049;-76
2023/03/18 08:05:02;;;;;;;65.30;43.63;;;9.90;99.90;;;;;;5051675;28;20063;-76
2023/03/18 08:07:28;;;;;;;66.33;43.67;;;10.00;99.90;;;;;;5053600;28;20055;-76
2023/03/18 08:09:54;;;;;;;68.57;43.70;;;10.10;99.90;;;;;;5069211;28;20064;-77
2023/03/18 08:12:20;;;;;;;63.60;41.13;;;10.20;99.90;;;;;;5050708;28;20052;-76
2023/03/18 08:14:47;;;;;;;64.30;43.47;;;10.20;99.90;;;;;;5068858;28;20063;-77
2023/03/18 08:17:13;;;;;;;58.50;40.13;;;10.30;99.90;;;;;;5035574;28;20418;-77
2023/03/18 08:19:40;;;;;;;57.63;40.23;;;10.30;99.90;;;;;;5051375;28;20068;-77
2023/03/18 08:22:07;;;;;;;59.67;39.67;;;10.40;99.90;;;;;;5068395;28;20509;-76
2023/03/18 08:24:33;;;;;;;54.50;39.50;;;10.40;99.90;;;;;;5050388;28;20063;-77
2023/03/18 08:26:58;;;;;;;53.23;38.77;;;10.50;99.90;;;;;;5035273;28;20107;-76
2023/03/18 08:29:24;;;;;;;58.57;38.43;;;10.50;99.90;;;;;;5068198;28;20090;-76
2023/03/18 08:31:50;;;;;;;54.03;38.23;;;10.50;99.90;;;;;;5072701;28;20036;-77
2023/03/18 08:34:15;;;;;;;55.80;37.23;;;10.60;99.90;;;;;;5050500;28;20056;-77
2023/03/18 08:36:42;;;;;;;49.97;36.30;;;10.60;99.90;;;;;;5055464;28;20048;-76
2023/03/18 08:39:08;;;;;;;50.60;36.03;;;10.60;99.90;;;;;;5067749;28;20080;-77
2023/03/18 08:41:34;;;;;;;47.27;35.40;;;10.60;99.90;;;;;;5065799;28;20057;-77
2023/03/18 08:44:02;;;;;;;49.70;35.43;;;10.70;99.90;;;;;;5066472;28;20581;-77
2023/03/18 08:46:28;;;;;;;48.97;34.07;;;10.70;99.90;;;;;;5033186;28;20090;-77
2023/03/18 08:48:53;;;;;;;46.83;34.15;;;10.70;99.90;;;;;;5042807;28;20557;-78
2023/03/18 08:51:21;;;;;;;46.63;34.83;;;10.70;99.90;;;;;;5067725;28;20136;-76
2023/03/18 08:53:47;;;;;;;44.97;33.37;;;10.70;99.90;;;;;;5066484;28;20043;-76
2023/03/18 08:56:13;;;;;;;50.20;33.27;;;10.70;99.90;;;;;;5024504;28;20044;-77
2023/03/18 08:58:39;;;;;;;48.17;34.97;;;10.80;99.90;;;;;;5043310;28;20107;-77
2023/03/18 09:01:05;;;;;;;47.73;34.00;;;10.80;99.90;;;;;;5067951;28;20490;-77
2023/03/18 09:03:32;;;;;;;49.57;35.10;;;10.80;99.90;;;;;;5067027;28;20097;-77
2023/03/18 09:05:58;;;;;;;49.75;36.20;;;10.80;99.90;;;;;;5050546;28;20053;-77
2023/03/18 09:08:24;;;;;;;46.30;33.97;;;10.80;99.90;;;;;;5052163;28;20491;-76
2023/03/18 09:10:52;;;;;;;45.60;33.93;;;10.90;99.90;;;;;;5068638;28;20048;-76
2023/03/18 09:13:19;;;;;;;41.63;32.73;;;10.90;99.90;;;;;;5048226;28;20047;-77
2023/03/18 09:15:44;;;;;;;50.03;34.60;;;10.90;99.90;;;;;;5049264;28;20045;-78
2023/03/18 09:18:12;;;;;;;47.93;35.13;;;10.90;99.90;;;;;;5050964;28;20059;-76
2023/03/18 09:20:39;;;;;;;50.67;35.83;;;10.90;99.90;;;;;;5069471;28;20501;-77
2023/03/18 09:23:05;;;;;;;44.90;33.17;;;11.00;99.90;;;;;;5071762;28;20606;-76
2023/03/18 09:25:31;;;;;;;46.05;33.78;;;11.10;99.90;;;;;;5072427;28;20391;-77
2023/03/18 09:27:57;;;;;;;46.50;33.80;;;11.10;99.90;;;;;;5056375;28;20264;-77
2023/03/18 09:30:24;;;;;;;47.05;34.42;;;11.10;99.90;;;;;;5071967;28;20044;-77
2023/03/18 09:32:50;;;;;;;48.85;34.67;;;11.10;99.90;;;;;;5062072;28;20494;-76
2023/03/18 09:35:15;;;;;;;44.35;34.13;;;11.10;99.90;;;;;;5072974;28;20048;-76
2023/03/18 09:37:42;;;;;;;44.92;33.28;;;11.20;99.90;;;;;;5039055;28;20506;-76
2023/03/18 09:40:24;;;;;;;44.55;34.50;;;11.30;99.90;;;;;;5072288;28;20049;-77
2023/03/18 09:43:01;;;;;;;43.97;32.88;;;11.30;99.90;;;;;;5071355;28;20036;-77
2023/03/18 09:45:54;;;;;;;42.53;32.13;;;11.40;99.90;;;;;;5085659;28;20571;-77
2023/03/18 09:48:44;;;;;;;49.60;32.42;;;11.40;99.90;;;;;;5055512;28;20064;-78
2023/03/18 09:51:51;;;;;;;45.97;33.90;;;11.50;99.90;;;;;;5067069;28;20406;-77
2023/03/18 09:54:37;;;;;;;43.58;34.30;;;11.80;99.90;;;;;;5039601;28;20594;-77
2023/03/18 09:57:09;;;;;;;44.20;32.83;;;12.00;99.90;;;;;;5037577;28;20429;-76
2023/03/18 09:59:40;;;;;;;44.13;33.72;;;12.10;99.90;;;;;;5071712;28;20045;-77
2023/03/18 10:02:46;;;;;;;45.67;32.90;;;12.10;99.90;;;;;;5053963;28;20534;-77
2023/03/18 10:05:17;;;;;;;39.33;30.90;;;12.30;99.90;;;;;;5071222;28;20406;-77
2023/03/18 10:07:46;;;;;;;;;;;12.50;99.90;;;;;;5055811;28;20123;-76
2023/03/18 10:10:19;;;;;;;42.97;29.70;;;13.20;99.90;;;;;;5072089;28;19927;-77
2023/03/18 10:12:54;;;;;;;35.58;28.25;;;14.00;99.90;;;;;;5070599;28;20044;-77
2023/03/18 10:15:41;;;;;;;38.58;27.00;;;14.10;99.90;;;;;;5036934;28;20479;-77
2023/03/18 10:18:17;;;;;;;35.83;27.42;;;14.60;99.90;;;;;;5036873;28;20409;-77
2023/03/18 10:21:15;;;;;;;33.50;25.55;;;14.50;99.90;;;;;;5071633;28;20418;-77
2023/03/18 10:24:25;;;;;;;33.17;24.98;;;14.50;99.90;;;;;;5070169;28;20794;-77
2023/03/18 10:27:23;;;;;;;35.47;25.02;;;14.50;99.90;;;;;;5056219;28;20052;-78
2023/03/18 10:30:13;;;;;;;32.22;24.45;;;14.50;99.90;;;;;;5070976;28;20044;-77
2023/03/18 10:33:02;;;;;;;33.22;23.52;;;14.50;99.90;;;;;;5084824;28;20040;-77
2023/03/18 10:35:51;;;;;;;27.35;21.58;;;14.90;99.90;;;;;;5036283;28;20094;-79
2023/03/18 10:38:20;;;;;;;23.92;19.88;;;15.20;99.90;;;;;;5055900;28;20052;-78
2023/03/18 10:40:47;;;;;;;26.52;20.48;;;15.30;99.90;;;;;;5071317;28;20070;-77
2023/03/18 10:43:18;;;;;;;38.50;27.85;;;15.70;99.90;;;;;;5069933;28;20051;-77
2023/03/18 10:45:45;;;;;;;24.65;18.80;;;15.40;99.90;;;;;;5059887;28;20123;-78
2023/03/18 10:48:30;;;;;;;23.40;18.77;;;15.40;99.90;;;;;;5053984;28;20075;-77
2023/03/18 10:51:13;;;;;;;21.92;17.23;;;15.10;99.90;;;;;;5066220;28;20045;-77
2023/03/18 10:53:44;;;;;;;21.38;16.75;;;15.00;99.90;;;;;;5050481;28;20105;-77
2023/03/18 10:56:12;;;;;;;25.00;17.02;;;15.20;99.90;;;;;;5044842;28;20068;-77
2023/03/18 10:58:39;;;;;;;24.17;18.00;;;15.70;99.90;;;;;;5063325;28;20052;-77
2023/03/18 11:01:11;;;;;;;23.77;18.65;;;16.20;99.90;;;;;;5071083;28;20448;-78
2023/03/18 11:03:46;;;;;;;25.92;19.20;;;16.40;99.90;;;;;;5070172;28;20332;-77
2023/03/18 11:06:46;;;;;;;30.13;23.55;;;16.70;99.90;;;;;;5043948;28;20509;-78
2023/03/18 11:09:16;;;;;;;26.92;21.38;;;16.60;99.90;;;;;;5051195;28;20044;-77
2023/03/18 11:11:44;;;;;;;25.55;19.20;;;16.50;99.90;;;;;;5070491;28;20055;-77
2023/03/18 11:14:16;;;;;;;30.10;22.15;;;16.30;99.90;;;;;;5069850;28;20040;-77
2023/03/18 11:16:57;;;;;;;23.27;16.83;;;16.10;99.90;;;;;;5055114;28;20055;-79
2023/03/18 11:19:26;;;;;;;26.15;18.20;;;16.70;99.90;;;;;;5069712;28;20148;-77
2023/03/18 11:22:24;;;;;;;20.13;17.52;;;16.30;99.90;;;;;;5070673;28;20102;-78
2023/03/18 11:25:15;;;;;;;21.48;14.98;;;16.10;99.90;;;;;;5053476;28;20087;-77
2023/03/18 11:27:44;;;;;;;14.25;11.40;;;16.00;99.90;;;;;;5053231;28;20516;-77
2023/03/18 11:30:18;;;;;;;11.60;8.10;;;16.20;99.90;;;;;;5070164;28;20044;-77
2023/03/18 11:32:52;;;;;;;15.15;10.88;;;16.00;99.90;;;;;;5053594;28;20047;-77
2023/03/18 11:35:31;;;;;;;16.15;11.07;;;15.50;99.90;;;;;;5069783;28;20131;-76
2023/03/18 11:38:00;;;;;;;15.93;11.57;;;15.20;99.90;;;;;;5037056;28;20053;-77
2023/03/18 11:40:27;;;;;;;22.38;15.10;;;15.10;99.90;;;;;;5070571;28;20486;-77
2023/03/18 11:42:59;;;;;;;15.50;11.75;;;14.90;99.90;;;;;;5068544;28;20047;-76
2023/03/18 11:45:25;;;;;;;19.23;12.82;;;14.70;99.90;;;;;;5064900;28;20059;-76
2023/03/18 11:47:52;;;;;;;15.43;12.48;;;14.40;99.90;;;;;;5048179;28;20458;-77
2023/03/18 11:50:24;;;;;;;17.02;12.48;;;14.30;99.90;;;;;;5051505;28;20044;-76
2023/03/18 11:53:20;;;;;;;17.00;11.00;;;14.30;99.90;;;;;;5053967;28;20194;-76
2023/03/18 11:56:00;;;;;;;15.38;11.75;;;14.20;99.90;;;;;;5065945;28;20048;-76
2023/03/18 11:58:40;;;;;;;15.52;12.00;;;14.20;99.90;;;;;;5053264;28;20040;-76
2023/03/18 12:01:19;;;;;;;15.73;12.53;;;14.30;99.90;;;;;;5069627;28;20492;-76
2023/03/18 12:04:04;;;;;;;16.88;12.93;;;14.50;99.90;;;;;;5068240;28;20601;-77
2023/03/18 12:06:37;;;;;;;18.13;12.63;;;14.50;99.90;;;;;;5037534;28;20491;-77
2023/03/18 12:09:35;;;;;;;19.00;13.98;;;15.10;99.90;;;;;;5067025;28;20041;-77
2023/03/18 12:12:30;;;;;;;19.63;13.90;;;15.10;99.90;;;;;;5051506;28;20060;-75
2023/03/18 12:15:12;;;;;;;17.88;13.77;;;15.00;99.90;;;;;;5050018;28;20490;-76
2023/03/18 12:18:08;;;;;;;16.58;13.02;;;15.00;99.90;;;;;;5052801;28;20175;-76
2023/03/18 12:20:54;;;;;;;17.27;12.55;;;15.00;99.90;;;;;;5003792;28;20068;-76
2023/03/18 12:23:44;;;;;;;15.30;12.77;;;14.90;99.90;;;;;;5068092;28;20043;-76
2023/03/18 12:26:23;;;;;;;17.02;12.05;;;14.80;99.90;;;;;;5043268;28;20102;-76
2023/03/18 12:29:16;;;;;;;15.95;12.40;;;14.80;99.90;;;;;;5064876;28;20052;-76
2023/03/18 12:31:57;;;;;;;16.88;12.27;;;14.80;99.90;;;;;;5074667;28;20570;-76
2023/03/18 12:34:33;;;;;;;14.48;10.93;;;15.80;99.90;;;;;;5067282;28;20499;-77
2023/03/18 12:37:42;;;;;;;16.85;12.00;;;16.10;99.90;;;;;;5053575;28;20057;-76
2023/03/18 12:40:27;;;;;;;17.17;12.40;;;15.60;99.90;;;;;;5043002;28;20601;-76
2023/03/18 12:43:02;;;;;;;19.42;12.00;;;15.10;99.90;;;;;;5067686;28;20410;-76
2023/03/18 12:45:42;;;;;;;16.60;12.82;;;15.20;99.90;;;;;;5082563;28;20063;-76